createdAt,value
2017-06-19T00:00:05.154Z,3.84
2017-06-19T00:02:33.942Z,4.18
2017-06-19T00:05:02.719Z,4.30
2017-06-19T00:07:31.514Z,4.02
2017-06-19T00:10:00.303Z,4.20
2017-06-19T00:12:29.083Z,3.72
2017-06-19T00:14:57.850Z,3.84
2017-06-19T00:17:26.627Z,4.96
2017-06-19T00:19:55.451Z,3.60
2017-06-19T00:22:24.222Z,4.42
2017-06-19T00:24:53.034Z,8.92
2017-06-19T00:27:21.866Z,4.12
2017-06-19T00:29:50.710Z,3.32
2017-06-19T00:32:19.490Z,4.36
2017-06-19T00:34:48.270Z,3.44
2017-06-19T00:37:17.038Z,3.72
2017-06-19T00:39:46.726Z,3.60
2017-06-19T00:42:15.562Z,4.46
2017-06-19T00:44:44.338Z,10.16
2017-06-19T00:47:13.138Z,3.98
2017-06-19T00:49:41.939Z,4.04
2017-06-19T00:52:10.702Z,3.30
2017-06-19T00:54:39.474Z,4.60
2017-06-19T00:57:08.286Z,3.34
2017-06-19T00:59:37.050Z,4.92
2017-06-19T01:02:05.826Z,5.58
2017-06-19T01:04:34.626Z,7.26
2017-06-19T01:07:03.446Z,4.30
2017-06-19T01:09:32.230Z,4.86
2017-06-19T01:12:01.642Z,5.48
2017-06-19T01:14:30.414Z,7.20
2017-06-19T01:16:59.193Z,4.07
2017-06-19T01:19:27.990Z,4.17
2017-06-19T01:21:57.309Z,4.00
2017-06-19T01:24:26.073Z,4.48
2017-06-19T01:26:54.862Z,7.58
2017-06-19T01:29:23.669Z,3.50
2017-06-19T01:31:52.433Z,5.84
2017-06-19T01:34:21.261Z,3.32
2017-06-19T01:36:50.474Z,4.14
2017-06-19T01:39:19.317Z,4.94
2017-06-19T01:41:48.202Z,5.06
2017-06-19T01:44:16.981Z,6.92
2017-06-19T01:46:45.753Z,4.32
2017-06-19T01:49:14.561Z,3.84
2017-06-19T01:51:43.341Z,4.52
2017-06-19T01:54:12.153Z,4.94
2017-06-19T01:56:40.929Z,6.24
2017-06-19T01:59:10.257Z,4.24
2017-06-19T02:01:39.121Z,4.26
2017-06-19T02:04:08.021Z,3.52
2017-06-19T02:06:36.789Z,4.10
2017-06-19T02:09:05.565Z,4.34
2017-06-19T02:11:34.361Z,4.12
2017-06-19T02:14:03.133Z,4.20
2017-06-19T02:16:31.957Z,4.60
2017-06-19T02:19:00.757Z,5.22
2017-06-19T02:21:29.533Z,4.22
2017-06-19T02:23:58.309Z,4.45
2017-06-19T02:26:27.097Z,4.14
2017-06-19T02:28:55.861Z,3.72
2017-06-19T02:31:24.893Z,6.36
2017-06-19T02:33:53.837Z,6.22
2017-06-19T02:36:22.597Z,4.64
2017-06-19T02:38:51.449Z,4.42
2017-06-19T02:41:20.221Z,3.68
2017-06-19T02:43:49.000Z,3.64
2017-06-19T02:46:17.757Z,3.58
2017-06-19T02:48:46.557Z,3.72
2017-06-19T02:51:16.192Z,3.98
2017-06-19T02:53:44.960Z,4.22
2017-06-19T02:56:13.761Z,3.70
2017-06-19T02:58:42.556Z,3.10
2017-06-19T03:01:11.349Z,3.54
2017-06-19T03:03:40.149Z,3.58
2017-06-19T03:06:08.925Z,4.16
2017-06-19T03:08:37.708Z,5.10
2017-06-19T03:11:06.500Z,3.28
2017-06-19T03:13:35.276Z,4.34
2017-06-19T03:16:04.044Z,3.98
2017-06-19T03:18:32.844Z,4.00
2017-06-19T03:21:01.641Z,4.10
2017-06-19T03:23:30.436Z,4.54
2017-06-19T03:25:59.240Z,4.42
2017-06-19T03:28:28.016Z,4.00
2017-06-19T03:30:56.792Z,5.88
2017-06-19T03:33:25.580Z,6.80
2017-06-19T03:35:54.388Z,4.74
2017-06-19T03:38:23.168Z,6.36
2017-06-19T03:40:52.064Z,4.22
2017-06-19T03:43:20.832Z,4.32
2017-06-19T03:45:49.720Z,4.66
2017-06-19T03:48:18.488Z,6.18
2017-06-19T03:50:47.316Z,4.90
2017-06-19T03:53:16.084Z,5.30
2017-06-19T03:55:44.889Z,7.72
2017-06-19T03:58:14.808Z,5.14
2017-06-19T04:00:43.696Z,4.42
2017-06-19T04:03:12.504Z,5.40
2017-06-19T04:05:41.283Z,6.20
2017-06-19T04:08:10.081Z,3.58
2017-06-19T04:10:38.876Z,3.32
2017-06-19T04:13:07.648Z,3.30
2017-06-19T04:15:36.748Z,5.26
2017-06-19T04:18:05.615Z,3.52
2017-06-19T04:20:34.383Z,3.44
2017-06-19T04:23:03.172Z,4.42
2017-06-19T04:25:32.002Z,3.22
2017-06-19T04:28:00.779Z,3.54
2017-06-19T04:30:29.535Z,4.58
2017-06-19T04:32:58.311Z,8.40
2017-06-19T04:35:27.083Z,5.78
2017-06-19T04:37:55.864Z,5.48
2017-06-19T04:40:24.719Z,5.74
2017-06-19T04:42:54.007Z,5.72
2017-06-19T04:45:22.775Z,3.12
2017-06-19T04:47:51.575Z,3.80
2017-06-19T04:50:20.352Z,4.92
2017-06-19T04:52:49.143Z,5.20
2017-06-19T04:55:17.963Z,4.82
2017-06-19T04:57:46.747Z,3.78
2017-06-19T05:00:15.537Z,3.74
2017-06-19T05:02:44.359Z,3.36
2017-06-19T05:05:13.131Z,3.32
2017-06-19T05:07:41.903Z,3.40
2017-06-19T05:10:10.769Z,4.58
2017-06-19T05:12:39.559Z,3.08
2017-06-19T05:15:09.359Z,2.68
2017-06-19T05:17:38.123Z,4.98
2017-06-19T05:20:06.911Z,3.64
2017-06-19T05:22:35.687Z,4.18
2017-06-19T05:25:04.483Z,3.08
2017-06-19T05:27:33.307Z,2.78
2017-06-19T05:30:02.059Z,5.78
2017-06-19T05:32:30.843Z,4.78
2017-06-19T05:34:59.602Z,3.96
2017-06-19T05:37:28.407Z,5.56
2017-06-19T05:39:57.187Z,6.18
2017-06-19T05:42:25.962Z,7.00
2017-06-19T05:44:54.726Z,4.70
2017-06-19T05:47:23.503Z,6.18
2017-06-19T05:49:52.310Z,4.24
2017-06-19T05:52:21.079Z,3.30
2017-06-19T05:54:49.871Z,3.32
2017-06-19T05:57:18.634Z,5.10
2017-06-19T05:59:47.402Z,3.90
2017-06-19T06:02:16.215Z,6.24
2017-06-19T06:04:44.982Z,2.72
2017-06-19T06:07:13.783Z,4.70
2017-06-19T06:09:42.570Z,4.06
2017-06-19T06:12:11.375Z,4.64
2017-06-19T06:14:40.146Z,4.04
2017-06-19T06:17:08.934Z,4.72
2017-06-19T06:19:37.726Z,3.56
2017-06-19T06:22:06.490Z,3.52
2017-06-19T06:24:35.262Z,9.54
2017-06-19T06:27:04.094Z,4.36
2017-06-19T06:29:32.882Z,5.82
2017-06-19T06:32:01.775Z,7.14
2017-06-19T06:34:30.546Z,6.78
2017-06-19T06:36:59.934Z,4.12
2017-06-19T06:39:28.730Z,2.72
2017-06-19T06:41:57.493Z,3.06
2017-06-19T06:44:26.358Z,4.62
2017-06-19T06:46:57.294Z,6.28
2017-06-19T06:49:27.034Z,3.50
2017-06-19T06:51:55.846Z,2.52
2017-06-19T06:54:24.586Z,2.44
2017-06-19T06:56:53.350Z,5.14
2017-06-19T06:59:22.938Z,7.24
2017-06-19T07:01:52.770Z,3.36
2017-06-19T07:04:21.550Z,8.16
2017-06-19T07:06:50.438Z,8.08
2017-06-19T07:09:19.193Z,2.36
2017-06-19T07:11:49.049Z,2.62
2017-06-19T07:14:17.837Z,4.72
2017-06-19T07:16:46.629Z,3.18
2017-06-19T07:19:15.493Z,7.86
2017-06-19T07:21:44.322Z,3.66
2017-06-19T07:24:13.079Z,3.78
2017-06-19T07:26:41.853Z,2.44
2017-06-19T07:29:10.742Z,2.20
2017-06-19T07:31:39.502Z,2.28
2017-06-19T07:34:08.321Z,2.52
2017-06-19T07:36:37.205Z,2.66
2017-06-19T07:39:06.006Z,2.42
2017-06-19T07:41:34.769Z,2.78
2017-06-19T07:44:03.561Z,2.78
2017-06-19T07:46:32.325Z,2.52
2017-06-19T07:49:01.097Z,4.00
2017-06-19T07:51:29.921Z,6.20
2017-06-19T07:53:58.681Z,2.04
2017-06-19T07:56:27.454Z,2.24
2017-06-19T07:58:56.249Z,2.12
2017-06-19T08:01:25.022Z,2.30
2017-06-19T08:03:53.873Z,2.24
2017-06-19T08:06:22.677Z,2.00
2017-06-19T08:08:51.485Z,3.44
2017-06-19T08:11:20.340Z,4.86
2017-06-19T08:13:49.133Z,1.88
2017-06-19T08:16:18.944Z,3.04
2017-06-19T08:18:47.709Z,4.36
2017-06-19T08:21:16.497Z,2.38
2017-06-19T08:23:45.305Z,3.14
2017-06-19T08:26:14.081Z,4.34
2017-06-19T08:28:42.877Z,4.06
2017-06-19T08:31:11.657Z,1.48
2017-06-19T08:33:40.449Z,3.22
2017-06-19T08:36:09.340Z,1.80
2017-06-19T08:38:38.129Z,1.92
2017-06-19T08:41:06.917Z,1.70
2017-06-19T08:43:35.700Z,1.68
2017-06-19T08:46:04.488Z,1.68
2017-06-19T08:48:33.249Z,2.98
2017-06-19T08:51:02.065Z,1.70
2017-06-19T08:53:30.861Z,2.44
2017-06-19T08:55:59.641Z,2.00
2017-06-19T08:58:28.428Z,2.94
2017-06-19T11:23:44.967Z,1.26
2017-06-19T11:26:14.623Z,1.50
2017-06-19T11:28:43.471Z,1.72
2017-06-19T11:31:12.291Z,4.26
2017-06-19T11:33:41.099Z,1.30
2017-06-19T11:36:09.914Z,2.00
2017-06-19T11:38:38.734Z,1.00
2017-06-19T11:41:07.518Z,1.18
2017-06-19T11:43:36.342Z,1.92
2017-06-19T11:46:05.170Z,3.50
2017-06-19T11:48:33.922Z,1.58
2017-06-19T11:51:02.806Z,5.58
2017-06-19T11:53:31.643Z,1.30
2017-06-19T11:56:00.479Z,1.68
2017-06-19T11:58:29.262Z,1.82
2017-06-19T12:00:58.046Z,1.14
2017-06-19T12:03:26.834Z,2.18
2017-06-19T12:05:55.614Z,1.30
2017-06-19T12:08:25.354Z,1.78
2017-06-19T12:10:54.122Z,1.54
2017-06-19T12:13:23.039Z,2.36
2017-06-19T12:15:51.846Z,2.44
2017-06-19T12:18:20.642Z,4.96
2017-06-19T12:20:49.418Z,1.44
2017-06-19T12:23:18.227Z,1.96
2017-06-19T12:25:46.989Z,1.16
2017-06-19T12:28:15.758Z,3.74
2017-06-19T12:30:45.610Z,2.72
2017-06-19T12:33:15.398Z,2.30
2017-06-19T12:35:44.878Z,1.40
2017-06-19T12:38:13.673Z,1.14
2017-06-19T12:40:42.510Z,1.10
2017-06-19T12:43:11.286Z,1.62
2017-06-19T12:45:40.117Z,1.74
2017-06-19T12:48:08.893Z,1.44
2017-06-19T12:50:37.698Z,1.24
2017-06-19T12:53:06.542Z,1.58
2017-06-19T12:55:35.346Z,1.18
2017-06-19T12:58:04.161Z,1.32
2017-06-19T13:00:32.937Z,2.60
2017-06-19T13:03:01.721Z,2.04
2017-06-19T13:05:30.514Z,1.14
2017-06-19T13:07:59.277Z,1.50
2017-06-19T13:10:28.033Z,1.16
2017-06-19T13:12:56.850Z,1.22
2017-06-19T13:15:25.630Z,1.26
2017-06-19T13:17:54.481Z,1.40
2017-06-19T13:20:23.306Z,1.26
2017-06-19T13:22:52.138Z,1.68
2017-06-19T13:25:20.909Z,1.34
2017-06-19T13:27:49.705Z,1.46
2017-06-19T13:30:18.498Z,1.74
2017-06-19T13:32:47.279Z,1.22
2017-06-19T13:35:16.106Z,2.30
2017-06-19T13:37:44.857Z,2.22
2017-06-19T13:40:13.626Z,1.38
2017-06-19T13:42:42.421Z,1.46
2017-06-19T13:45:11.186Z,1.04
2017-06-19T13:47:39.961Z,1.14
2017-06-19T13:50:08.749Z,3.58
2017-06-19T13:52:37.529Z,1.14
2017-06-19T13:55:06.297Z,1.28
2017-06-19T13:57:35.086Z,3.52
2017-06-19T14:00:03.853Z,1.06
2017-06-19T14:02:32.617Z,1.38
2017-06-19T14:05:01.437Z,1.02
2017-06-19T14:07:30.205Z,0.90
2017-06-19T14:09:58.982Z,1.40
2017-06-19T14:12:27.781Z,1.42
2017-06-19T14:14:56.553Z,1.16
2017-06-19T14:17:25.333Z,1.36
2017-06-19T14:19:54.149Z,1.14
2017-06-19T14:22:22.917Z,1.66
2017-06-19T14:24:51.781Z,1.82
2017-06-19T14:27:20.609Z,1.30
2017-06-19T14:29:49.413Z,1.40
2017-06-19T14:32:18.193Z,1.46
2017-06-19T14:34:46.996Z,1.46
2017-06-19T14:37:15.801Z,1.40
2017-06-19T14:39:44.553Z,1.02
2017-06-19T14:42:13.453Z,1.20
2017-06-19T14:44:42.292Z,1.28
2017-06-19T14:47:11.137Z,1.50
2017-06-19T14:49:39.988Z,0.92
2017-06-19T14:52:08.813Z,1.42
2017-06-19T14:54:37.677Z,1.10
2017-06-19T14:57:06.576Z,2.50
2017-06-19T14:59:35.352Z,0.90
2017-06-19T15:02:04.225Z,1.08
2017-06-19T15:04:33.061Z,1.50
2017-06-19T15:07:01.822Z,2.44
2017-06-19T15:09:30.608Z,2.66
2017-06-19T15:11:59.453Z,0.96
2017-06-19T15:14:28.300Z,1.14
2017-06-19T15:16:57.140Z,1.16
2017-06-19T15:19:25.972Z,2.04
2017-06-19T15:22:00.377Z,1.12
2017-06-19T15:24:29.168Z,1.90
2017-06-19T15:26:57.953Z,1.26
2017-06-19T15:29:26.748Z,2.12
2017-06-19T15:31:55.620Z,1.40
2017-06-19T15:34:24.388Z,1.38
2017-06-19T15:36:53.177Z,1.22
2017-06-19T15:39:22.084Z,1.38
2017-06-19T15:41:50.861Z,1.40
2017-06-19T15:44:19.668Z,1.38
2017-06-19T15:46:48.476Z,1.26
2017-06-19T15:49:17.268Z,1.02
2017-06-19T15:51:46.044Z,1.06
2017-06-19T15:54:14.852Z,0.88
2017-06-19T15:56:43.653Z,1.00
2017-06-19T15:59:12.444Z,0.96
2017-06-19T16:01:41.248Z,2.26
2017-06-19T16:04:10.020Z,1.04
2017-06-19T16:06:38.784Z,1.30
2017-06-19T16:09:07.568Z,1.04
2017-06-19T16:11:36.324Z,1.46
2017-06-19T16:14:05.091Z,1.34
2017-06-19T16:16:33.884Z,1.10
2017-06-19T16:19:02.677Z,0.94
2017-06-19T16:21:31.511Z,1.18
2017-06-19T16:24:00.316Z,1.18
2017-06-19T16:26:29.115Z,0.94
2017-06-19T16:28:57.908Z,2.12
2017-06-19T16:31:26.708Z,0.96
2017-06-19T16:33:55.471Z,1.26
2017-06-19T16:36:24.259Z,1.10
2017-06-19T16:38:53.051Z,1.00
2017-06-19T16:41:22.707Z,1.06
2017-06-19T16:43:51.500Z,1.20
2017-06-19T16:46:20.307Z,0.94
2017-06-19T16:48:49.067Z,1.88
2017-06-19T16:51:17.874Z,3.26
2017-06-19T16:53:46.779Z,1.18
2017-06-19T16:56:15.507Z,0.98
2017-06-19T16:58:44.275Z,1.10
2017-06-19T17:01:13.083Z,1.34
2017-06-19T17:03:41.883Z,0.98
2017-06-19T17:06:10.664Z,1.32
2017-06-19T17:08:38.702Z,1.12
2017-06-19T17:11:07.479Z,0.90
2017-06-19T17:13:36.251Z,0.90
2017-06-19T17:16:05.091Z,1.26
2017-06-19T17:18:33.870Z,1.36
2017-06-19T17:21:02.676Z,0.82
2017-06-19T17:23:32.430Z,1.76
2017-06-19T17:26:01.212Z,1.32
2017-06-19T17:28:29.979Z,0.80
2017-06-19T17:30:58.802Z,1.10
2017-06-19T17:33:27.567Z,0.88
2017-06-19T17:35:56.327Z,0.80
2017-06-19T17:38:25.134Z,1.00
2017-06-19T17:40:54.010Z,1.40
2017-06-19T17:43:23.710Z,0.80
2017-06-19T17:45:52.530Z,1.10
2017-06-19T17:48:21.310Z,0.84
2017-06-19T17:51:02.062Z,1.18
2017-06-19T17:53:31.050Z,3.35
2017-06-19T17:55:59.827Z,2.37
2017-06-19T17:58:27.870Z,1.90
2017-06-19T18:00:56.639Z,7.12
2017-06-19T18:03:25.430Z,68.92
2017-06-19T18:05:54.214Z,104.54
2017-06-19T18:08:22.986Z,74.96
2017-06-19T18:31:12.534Z,28.06
2017-06-19T18:33:43.302Z,33.78
2017-06-19T18:36:12.110Z,24.80
2017-06-19T18:38:42.826Z,25.04
2017-06-19T18:41:13.558Z,19.52
2017-06-19T18:54:07.073Z,20.05
2017-06-19T18:56:36.802Z,16.28
2017-06-19T19:10:38.210Z,13.12
2017-06-19T19:27:24.037Z,10.84
2017-06-19T20:01:16.829Z,6.72
2017-06-19T20:03:48.725Z,2.98
2017-06-19T20:06:24.377Z,2.98
2017-06-19T20:10:26.889Z,7.40
2017-06-19T20:12:54.929Z,3.27
2017-06-19T20:15:23.841Z,5.47
2017-06-19T20:17:51.857Z,4.97
2017-06-19T20:20:25.153Z,3.77
2017-06-19T20:22:55.169Z,5.87
2017-06-19T20:25:24.169Z,3.27
2017-06-19T20:27:53.197Z,5.60
2017-06-19T20:30:23.217Z,6.90
2017-06-19T20:32:51.229Z,3.83
2017-06-19T20:35:19.269Z,8.90
2017-06-19T20:37:47.296Z,3.20
2017-06-19T20:40:16.121Z,4.30
2017-06-19T20:42:44.145Z,4.50
2017-06-19T20:45:12.168Z,4.37
2017-06-19T20:47:40.192Z,3.73
2017-06-19T20:50:16.605Z,4.10
2017-06-19T20:52:48.293Z,3.30
2017-06-19T20:55:17.805Z,3.67
2017-06-19T20:57:49.445Z,5.17
2017-06-19T21:00:21.061Z,3.77
2017-06-19T21:05:42.820Z,3.33
2017-06-19T21:08:13.900Z,3.73
2017-06-19T21:13:42.096Z,5.77
2017-06-19T21:16:12.144Z,2.50
2017-06-19T21:18:51.996Z,3.00
2017-06-19T21:21:40.093Z,8.10
2017-06-19T21:24:21.320Z,3.40
2017-06-19T21:26:49.350Z,3.20
2017-06-19T21:29:27.784Z,5.17
2017-06-19T21:32:03.204Z,4.73
2017-06-19T21:34:33.216Z,5.50
2017-06-19T21:37:01.244Z,3.40
2017-06-19T21:39:29.320Z,3.80
2017-06-19T21:41:57.496Z,3.57
2017-06-19T21:44:29.052Z,7.00
2017-06-19T21:46:57.092Z,7.70
2017-06-19T21:49:29.196Z,10.73
2017-06-19T21:51:57.736Z,3.47
2017-06-19T21:54:26.561Z,6.00
2017-06-19T21:56:56.604Z,3.50
2017-06-19T21:59:28.716Z,3.90
2017-06-19T22:01:56.844Z,3.80
2017-06-19T22:04:29.427Z,4.63
2017-06-19T22:06:59.772Z,4.47
2017-06-19T22:09:30.011Z,3.97
2017-06-19T22:11:59.792Z,3.30
2017-06-19T22:14:27.815Z,3.37
2017-06-19T22:16:56.920Z,6.90
2017-06-19T22:19:24.995Z,3.97
2017-06-19T22:22:04.144Z,6.57
2017-06-19T22:24:32.287Z,4.60
2017-06-19T22:27:00.344Z,4.30
2017-06-19T22:29:28.384Z,6.07
2017-06-19T22:31:56.451Z,3.70
2017-06-19T22:34:24.507Z,5.50
2017-06-19T22:36:52.643Z,3.40
2017-06-19T22:39:21.635Z,5.33
2017-06-19T22:41:49.740Z,4.27
2017-06-19T22:44:17.759Z,4.10
2017-06-19T22:46:45.799Z,3.57
2017-06-19T22:49:15.623Z,4.13
2017-06-19T22:51:46.379Z,4.30
2017-06-19T22:54:14.443Z,3.90
2017-06-19T22:56:42.487Z,3.90
2017-06-19T22:59:11.635Z,4.10
2017-06-19T23:01:39.891Z,4.03
2017-06-19T23:04:08.044Z,3.40
2017-06-19T23:06:37.039Z,3.30
2017-06-19T23:09:05.999Z,3.90
2017-06-19T23:11:34.063Z,4.80
2017-06-19T23:14:02.099Z,3.10
2017-06-19T23:16:30.277Z,3.67
2017-06-19T23:18:58.303Z,3.00
2017-06-19T23:21:26.320Z,3.53
2017-06-19T23:23:54.343Z,3.50
2017-06-19T23:32:25.818Z,4.67
2017-06-19T23:34:55.822Z,3.33
2017-06-19T23:37:24.951Z,3.30
2017-06-19T23:42:31.431Z,5.53
2017-06-19T23:45:00.378Z,3.37
2017-06-19T23:47:29.395Z,3.30
2017-06-19T23:49:58.415Z,3.27
2017-06-19T23:52:26.438Z,3.53
2017-06-19T23:54:56.478Z,3.07
2017-06-19T23:57:26.310Z,3.60
2017-06-19T23:59:56.286Z,3.10
